Madeline — WDF2406 — position and weather

sailwx.info

Track history (hours):
 
Tides and Currents Weather Stations Pressure Air Temp Water Temp Dewpoint Dewpoint Depression Visibility Wind Speed Wind Dir Waves Ship Positions

Madeline

Owner: Enterprise Marine Services, LLC, San Antonio, TX. More information available from US FCC via Universal Licensing System and Coast Guard Vessel Documentation Center.

Last reported at 2016-Jul-29 21:11 UTC. Time now 2016-Jul-30 07:21 UTC.
Position N 29°59' W 093°53'.

; draft 3 m.

Type: Ship (hazmat cat B). MMSI: 367350460.

Date/timePositionNaut miles runAvg speedWind from/ knotsBaromVisibWave heightAir tempDewpointWater temp
2016-Jul-29 21:11N 29°59' W 093°53'3 4.0
2016-Jul-29 20:20N 29°59' W 093°49'4 5.4
2016-Jul-29 19:33N 30°01' W 093°45'4 4.4
2016-Jul-29 18:33N 30°04' W 093°40'5 5.1
2016-Jul-29 17:33N 30°04' W 093°34'5 5.4
2016-Jul-29 16:33N 30°04' W 093°28'6 5.8
2016-Jul-29 15:33N 30°04' W 093°21'4 3.6
2016-Jul-29 14:33N 30°05' W 093°18'4 3.9
2016-Jul-29 13:34N 30°02' W 093°15'6 5.6
2016-Jul-29 12:33N 29°58' W 093°11'6 5.5
2016-Jul-29 11:33N 29°56' W 093°05'29 4.6
2016-Jul-29 05:21N 29°54' W 092°32'4 5.1
2016-Jul-29 04:33N 29°54' W 092°27'4 4.3
2016-Jul-29 03:33N 29°52' W 092°22'4 3.9
2016-Jul-29 02:33N 29°50' W 092°19'2 2.4
2016-Jul-29 01:33N 29°49' W 092°17'4 4.4
2016-Jul-29 00:33N 29°47' W 092°12'6 5.7
2016-Jul-28 23:33N 29°48' W 092°05'6 6.2
2016-Jul-28 22:33N 29°50' W 091°59'  
2016-Jul-26 01:33N 32°06' W 091°06'6 6.0
2016-Jul-26 00:33N 32°09' W 091°00'9 8.6
2016-Jul-25 23:33N 32°17' W 090°56'5 5.2
2016-Jul-25 22:34N 32°21' W 091°00'7 7.4
2016-Jul-25 21:33N 32°27' W 091°05'8 8.1
2016-Jul-25 20:32N 32°35' W 091°08'  
Track history (hours):
 
Tides and Currents Weather Stations Pressure Air Temp Water Temp Dewpoint Dewpoint Depression Visibility Wind Speed Wind Dir Waves Ship Positions

Madeline

Owner: Enterprise Marine Services, LLC, San Antonio, TX. More information available from US FCC via Universal Licensing System and Coast Guard Vessel Documentation Center.

Last reported at 2016-Jul-29 21:11 UTC. Time now 2016-Jul-30 07:21 UTC.
Position N 29°59' W 093°53'.

; draft 3 m.

Type: Ship (hazmat cat B). MMSI: 367350460.

Date/timePositionNaut miles runAvg speedWind from/ knotsBaromVisibWave heightAir tempDewpointWater temp
2016-Jul-29 21:11N 29°59' W 093°53'3 4.0
2016-Jul-29 20:20N 29°59' W 093°49'4 5.4
2016-Jul-29 19:33N 30°01' W 093°45'4 4.4
2016-Jul-29 18:33N 30°04' W 093°40'5 5.1
2016-Jul-29 17:33N 30°04' W 093°34'5 5.4
2016-Jul-29 16:33N 30°04' W 093°28'6 5.8
2016-Jul-29 15:33N 30°04' W 093°21'4 3.6
2016-Jul-29 14:33N 30°05' W 093°18'4 3.9
2016-Jul-29 13:34N 30°02' W 093°15'6 5.6
2016-Jul-29 12:33N 29°58' W 093°11'6 5.5
2016-Jul-29 11:33N 29°56' W 093°05'29 4.6
2016-Jul-29 05:21N 29°54' W 092°32'4 5.1
2016-Jul-29 04:33N 29°54' W 092°27'4 4.3
2016-Jul-29 03:33N 29°52' W 092°22'4 3.9
2016-Jul-29 02:33N 29°50' W 092°19'2 2.4
2016-Jul-29 01:33N 29°49' W 092°17'4 4.4
2016-Jul-29 00:33N 29°47' W 092°12'6 5.7
2016-Jul-28 23:33N 29°48' W 092°05'6 6.2
2016-Jul-28 22:33N 29°50' W 091°59'  
2016-Jul-26 01:33N 32°06' W 091°06'6 6.0
2016-Jul-26 00:33N 32°09' W 091°00'9 8.6
2016-Jul-25 23:33N 32°17' W 090°56'5 5.2
2016-Jul-25 22:34N 32°21' W 091°00'7 7.4
2016-Jul-25 21:33N 32°27' W 091°05'8 8.1
2016-Jul-25 20:32N 32°35' W 091°08'  

Dump ship's entire track history